Time;durP1;ratioP1;P1;durP2;ratioP2;P2;SDS_P1;SDS_P2;PMS_P1;PMS_P2;Temp;Humidity;BMP_temperature;BMP_pressure;BME280_temperature;BME280_humidity;BME280_pressure;Samples;Min_cycle;Max_cycle;Signal;HPM_P1;HPM_P2
2022/05/13 00:00:24;;;;;;;1.25;0.80;;;;;;;11.34;60.67;98191.06;5051923;28;20029;-62
2022/05/13 00:02:50;;;;;;;0.95;0.60;;;;;;;11.35;59.92;98194.56;5035374;28;20090;-62
2022/05/13 00:05:15;;;;;;;1.38;0.80;;;;;;;11.38;60.28;98201.44;5053327;28;20455;-62
2022/05/13 00:07:41;;;;;;;1.52;0.75;;;;;;;11.35;60.62;98197.25;5018892;28;20025;-61
2022/05/13 00:10:07;;;;;;;1.85;0.77;;;;;;;11.43;59.84;98209.81;5052998;28;20087;-62
2022/05/13 00:12:40;;;;;;;2.20;0.65;;;;;;;11.52;60.18;98207.97;5034668;28;20037;-62
2022/05/13 00:15:12;;;;;;;1.27;0.80;;;;;;;11.48;59.98;98212.81;5033591;28;20033;-63
2022/05/13 00:17:37;;;;;;;1.92;0.90;;;;;;;11.27;60.40;98183.88;5015313;28;20059;-63
2022/05/13 00:20:04;;;;;;;2.53;0.85;;;;;;;11.45;60.22;98213.16;5032926;28;20083;-62
2022/05/13 00:22:30;;;;;;;0.98;0.90;;;;;;;11.51;60.37;98217.81;5034048;28;20029;-63
2022/05/13 00:24:56;;;;;;;1.55;0.80;;;;;;;11.58;59.95;98229.56;5033464;28;20041;-62
2022/05/13 00:27:22;;;;;;;1.63;0.82;;;;;;;11.55;59.96;98216.47;5032730;28;20021;-62
2022/05/13 00:29:48;;;;;;;1.25;0.80;;;;;;;11.58;59.94;98226.88;5032756;28;20054;-61
2022/05/13 00:32:15;;;;;;;2.70;0.80;;;;;;;11.61;60.23;98231.91;5015554;28;20037;-62
2022/05/13 00:34:40;;;;;;;3.17;1.08;;;;;;;11.61;60.32;98212.28;5032908;28;20057;-63
2022/05/13 00:37:05;;;;;;;3.35;1.00;;;;;;;11.67;59.93;98208.09;5040129;28;20029;-63
2022/05/13 00:39:31;;;;;;;1.30;0.90;;;;;;;11.68;60.21;98217.81;5037541;28;20091;-64
2022/05/13 00:42:08;;;;;;;1.50;0.98;;;;;;;11.71;60.59;98217.47;5015315;28;20030;-62
2022/05/13 00:44:34;;;;;;;2.25;1.00;;;;;;;11.73;60.05;98226.16;5014774;28;20056;-63
2022/05/13 00:47:01;;;;;;;1.70;1.10;;;;;;;11.70;60.12;98216.63;5014892;28;20068;-62
2022/05/13 00:49:28;;;;;;;2.53;1.38;;;;;;;11.72;59.97;98224.50;5032259;28;20381;-63
2022/05/13 00:51:53;;;;;;;3.67;1.33;;;;;;;11.75;59.54;98219.63;5014980;28;20179;-64
2022/05/13 00:54:19;;;;;;;3.08;1.27;;;;;;;11.71;59.87;98214.78;5032606;28;20504;-63
2022/05/13 00:56:47;;;;;;;2.88;1.40;;;;;;;11.70;60.03;98227.38;4998215;28;20140;-62
2022/05/13 00:59:16;;;;;;;3.10;1.00;;;;;;;11.71;60.43;98237.09;5014811;28;20025;-61
2022/05/13 01:01:42;;;;;;;3.72;1.20;;;;;;;11.71;59.91;98233.56;5032372;28;20033;-62
2022/05/13 01:04:10;;;;;;;1.67;1.30;;;;;;;11.76;59.73;98237.41;5032468;28;20037;-62
2022/05/13 01:06:36;;;;;;;2.03;1.30;;;;;;;11.74;59.26;98241.25;5022315;28;20163;-62
2022/05/13 01:09:03;;;;;;;2.65;1.30;;;;;;;11.69;58.77;98246.28;5034247;28;20174;-62
2022/05/13 01:11:34;;;;;;;1.40;1.20;;;;;;;11.57;59.23;98211.78;5032418;28;20392;-62
2022/05/13 01:14:04;;;;;;;1.27;0.90;;;;;;;11.60;58.91;98216.81;5033947;28;20434;-63
2022/05/13 01:18:04;;;;;;;2.78;1.10;;;;;;;11.74;58.98;98254.66;5051860;28;20102;-62
2022/05/13 01:19:15;;;;;;;1.50;1.23;;;;;;;11.81;58.65;98252.13;5051536;28;20048;-62
2022/05/13 01:21:40;;;;;;;2.88;1.10;;;;;;;11.81;58.77;98249.44;5051600;28;20052;-63
2022/05/13 01:24:06;;;;;;;0.88;0.70;;;;;;;11.66;58.95;98230.56;5038130;28;20045;-61
2022/05/13 01:26:35;;;;;;;1.55;1.10;;;;;;;11.84;58.96;98259.84;5031827;28;20030;-62
2022/05/13 01:29:02;;;;;;;1.27;0.90;;;;;;;11.76;59.00;98242.75;5034660;28;20047;-64
2022/05/13 01:31:30;;;;;;;1.67;0.90;;;;;;;11.94;58.60;98246.25;5051325;28;20037;-63
2022/05/13 01:33:57;;;;;;;3.88;0.85;;;;;;;11.94;57.92;98265.88;5051505;28;20033;-62
2022/05/13 01:36:23;;;;;;;3.03;1.10;;;;;;;11.87;57.99;98260.34;5019027;28;20083;-62
2022/05/13 01:38:49;;;;;;;1.60;0.90;;;;;;;11.81;58.08;98255.63;5031472;28;20415;-62
2022/05/13 01:41:16;;;;;;;1.40;1.00;;;;;;;11.81;58.06;98261.00;5031258;28;20030;-62
2022/05/13 01:43:43;;;;;;;1.73;1.20;;;;;;;11.60;57.94;98229.38;5031357;28;20133;-62
2022/05/13 01:46:09;;;;;;;2.40;0.98;;;;;;;11.77;56.78;98260.53;5014003;28;20033;-61
2022/05/13 01:48:36;;;;;;;3.67;0.90;;;;;;;11.77;56.99;98249.78;5014177;28;20125;-61
2022/05/13 01:51:02;;;;;;;1.23;0.70;;;;;;;11.60;56.67;98224.00;5013776;28;20044;-60
2022/05/13 01:53:28;;;;;;;1.10;0.77;;;;;;;11.77;56.73;98259.66;5013741;28;20105;-61
2022/05/13 01:55:54;;;;;;;3.20;1.00;;;;;;;11.75;56.89;98259.84;5031278;28;20029;-63
2022/05/13 01:58:21;;;;;;;2.72;0.93;;;;;;;11.83;57.20;98266.22;5014269;28;20044;-63
2022/05/13 02:00:50;;;;;;;2.70;0.85;;;;;;;11.79;56.73;98271.06;5050459;28;20035;-64
2022/05/13 02:06:00;;;;;;;5.33;0.97;;;;;;;11.85;56.55;98266.88;5050951;28;20032;-63
2022/05/13 02:08:27;;;;;;;1.85;0.80;;;;;;;11.81;56.72;98254.81;5049659;28;20660;-61
2022/05/13 02:10:53;;;;;;;4.00;1.00;;;;;;;11.78;56.39;98267.56;5050778;28;20025;-62
2022/05/13 02:13:18;;;;;;;2.53;1.20;;;;;;;11.77;56.63;98265.88;5032994;28;20063;-61
2022/05/13 02:15:44;;;;;;;1.63;1.00;;;;;;;11.84;56.52;98271.41;5050882;28;20098;-61
2022/05/13 02:18:10;;;;;;;1.73;0.90;;;;;;;11.89;56.48;98279.78;5039452;28;20036;-60
2022/05/13 02:20:37;;;;;;;2.10;0.82;;;;;;;11.90;56.81;98280.59;5031229;28;20041;-61
2022/05/13 02:23:03;;;;;;;3.88;0.80;;;;;;;11.92;56.51;98287.47;5015194;28;20557;-62
2022/05/13 02:25:30;;;;;;;1.50;0.80;;;;;;;11.94;56.47;98297.19;5050560;28;20112;-61
2022/05/13 02:27:56;;;;;;;3.13;1.50;;;;;;;11.96;56.31;98306.75;5050588;28;20419;-62
2022/05/13 02:30:22;;;;;;;3.70;1.00;;;;;;;11.98;56.36;98293.16;5050823;28;20382;-61
2022/05/13 02:32:48;;;;;;;1.60;0.90;;;;;;;11.99;56.29;98286.78;5016380;28;20044;-61
2022/05/13 02:35:13;;;;;;;3.70;0.98;;;;;;;11.94;55.54;98265.88;5049144;28;20028;-63
2022/05/13 02:37:39;;;;;;;1.83;1.10;;;;;;;12.08;55.74;98296.53;5013022;28;20045;-62
2022/05/13 02:40:05;;;;;;;4.30;1.05;;;;;;;12.15;55.39;98299.34;5031487;28;20025;-63
2022/05/13 02:42:30;;;;;;;3.60;0.68;;;;;;;12.14;55.41;98290.47;5030404;28;20033;-62
2022/05/13 02:44:56;;;;;;;3.60;0.95;;;;;;;12.13;55.67;98310.25;5030402;28;20113;-63
2022/05/13 02:47:22;;;;;;;5.50;0.93;;;;;;;12.15;55.25;98299.34;5031034;28;20042;-63
2022/05/13 02:50:17;;;;;;;4.03;0.85;;;;;;;12.17;55.16;98306.22;5049934;28;20106;-62
2022/05/13 02:52:33;;;;;;;3.20;1.17;;;;;;;12.17;55.03;98300.00;5032538;28;20491;-62
2022/05/13 02:54:58;;;;;;;2.40;0.75;;;;;;;12.10;55.20;98291.84;5022337;28;20045;-61
2022/05/13 02:57:24;;;;;;;4.15;0.90;;;;;;;12.13;54.26;98302.22;5030825;28;20044;-63
2022/05/13 02:59:49;;;;;;;2.90;1.00;;;;;;;12.10;54.65;98318.66;5013032;28;20110;-63
2022/05/13 03:02:15;;;;;;;3.53;0.90;;;;;;;12.07;54.69;98310.97;5013016;28;20029;-62
2022/05/13 03:04:40;;;;;;;2.28;0.77;;;;;;;12.02;54.53;98315.97;5030478;28;20060;-61
2022/05/13 03:07:06;;;;;;;3.42;0.65;;;;;;;12.01;54.22;98319.66;5039430;28;20036;-62
2022/05/13 03:09:31;;;;;;;4.03;0.60;;;;;;;11.99;54.09;98321.66;5032705;28;20029;-61
2022/05/13 03:11:57;;;;;;;3.40;0.90;;;;;;;12.05;54.25;98316.47;5054158;28;20035;-62
2022/05/13 03:14:22;;;;;;;3.90;1.27;;;;;;;12.05;54.17;98308.44;5034325;28;20065;-62
2022/05/13 03:16:47;;;;;;;4.43;0.80;;;;;;;12.02;53.85;98291.84;5033866;28;20033;-62
2022/05/13 03:19:13;;;;;;;2.50;1.00;;;;;;;12.22;53.59;98315.59;5023668;28;20049;-61
2022/05/13 03:21:38;;;;;;;2.67;1.10;;;;;;;12.23;53.62;98336.06;5053901;28;20136;-62
2022/05/13 03:24:04;;;;;;;3.00;0.80;;;;;;;12.25;53.17;98342.09;5054009;28;20029;-62
2022/05/13 03:26:30;;;;;;;1.75;0.80;;;;;;;12.26;53.10;98322.28;5054175;28;20567;-62
2022/05/13 03:28:55;;;;;;;2.90;0.95;;;;;;;12.22;53.32;98331.69;5019421;28;20099;-62
2022/05/13 03:31:21;;;;;;;1.33;0.80;;;;;;;12.29;53.35;98330.00;5047368;28;20029;-63
2022/05/13 03:33:47;;;;;;;4.30;1.08;;;;;;;12.33;53.15;98336.72;5034158;28;20110;-63
2022/05/13 03:36:14;;;;;;;4.10;1.15;;;;;;;12.40;52.83;98345.75;5015767;28;20060;-62
2022/05/13 03:38:43;;;;;;;3.63;0.95;;;;;;;12.34;53.51;98335.72;5048823;28;20399;-62
2022/05/13 03:41:10;;;;;;;3.92;1.00;;;;;;;12.51;53.10;98341.00;5035997;28;20029;-62
2022/05/13 03:43:36;;;;;;;4.30;1.10;;;;;;;12.50;52.65;98337.50;5047993;28;20098;-61
2022/05/13 03:46:01;;;;;;;4.53;0.85;;;;;;;12.42;52.06;98324.94;5033583;28;20851;-62
2022/05/13 03:48:27;;;;;;;2.70;0.98;;;;;;;12.60;52.29;98337.31;5033515;28;20777;-62
2022/05/13 03:50:52;;;;;;;2.88;0.82;;;;;;;12.76;51.76;98350.63;5015749;28;20064;-62
2022/05/13 03:53:18;;;;;;;7.15;1.40;;;;;;;12.89;51.22;98344.69;5033351;28;20057;-62
2022/05/13 03:55:45;;;;;;;6.10;1.20;;;;;;;12.84;51.38;98346.25;5033414;28;20034;-63
2022/05/13 03:58:11;;;;;;;2.55;0.88;;;;;;;12.83;51.63;98315.06;5033853;28;20041;-62
2022/05/13 04:00:38;;;;;;;4.22;1.00;;;;;;;13.28;50.16;98351.06;5015559;28;20030;-62
2022/05/13 04:03:03;;;;;;;7.38;1.05;;;;;;;13.39;50.01;98354.34;5044628;28;20037;-61
2022/05/13 04:10:58;;;;;;;2.45;1.10;;;;;;;14.48;47.19;98337.94;5033245;28;20049;-62
2022/05/13 04:16:08;;;;;;;3.38;1.10;;;;;;;15.07;46.03;98368.53;5029187;28;20115;-64
2022/05/13 04:18:38;;;;;;;4.45;1.00;;;;;;;15.07;45.58;98363.16;5032989;28;20045;-64
2022/05/13 04:21:06;;;;;;;5.82;1.10;;;;;;;15.04;45.74;98371.63;5015040;28;20270;-63
2022/05/13 04:23:37;;;;;;;1.30;0.80;;;;;;;14.93;45.63;98364.84;5015563;28;20051;-64
2022/05/13 04:26:03;;;;;;;4.95;1.00;;;;;;;15.10;45.64;98382.66;5033009;28;20389;-64
2022/05/13 04:28:30;;;;;;;3.95;0.90;;;;;;;15.69;44.21;98378.13;5014977;28;20041;-65
2022/05/13 04:30:55;;;;;;;3.45;1.13;;;;;;;15.87;42.99;98338.00;5032686;28;20062;-67
2022/05/13 04:33:21;;;;;;;4.50;1.25;;;;;;;15.95;42.99;98344.34;5042350;28;20037;-68
2022/05/13 04:35:46;;;;;;;2.35;0.90;;;;;;;16.50;42.41;98374.22;5035156;28;20028;-66
2022/05/13 04:38:12;;;;;;;5.45;0.82;;;;;;;17.62;39.23;98363.25;5034911;28;20235;-67
2022/05/13 04:40:38;;;;;;;2.13;0.80;;;;;;;17.69;38.44;98359.72;5052299;28;20108;-68
2022/05/13 04:43:06;;;;;;;4.53;0.93;;;;;;;17.58;38.44;98383.63;5052648;28;20484;-67
2022/05/13 04:45:32;;;;;;;4.68;1.10;;;;;;;17.47;38.22;98376.13;5044044;28;20025;-67
2022/05/13 04:48:21;;;;;;;2.05;1.05;;;;;;;17.61;38.63;98379.69;5038585;28;20037;-66
2022/05/13 04:50:58;;;;;;;3.70;1.08;;;;;;;17.44;38.79;98374.66;5020157;28;20040;-63
2022/05/13 04:53:29;;;;;;;2.78;1.30;;;;;;;17.02;39.35;98373.91;5014298;28;20068;-65
2022/05/13 04:55:56;;;;;;;4.28;1.00;;;;;;;16.64;40.12;98370.56;5032077;28;20025;-65
2022/05/13 04:58:22;;;;;;;4.32;1.40;;;;;;;16.50;40.34;98366.09;5027227;28;20032;-66
2022/05/13 05:00:49;;;;;;;3.83;1.35;;;;;;;16.37;40.67;98350.66;5051599;28;20096;-65
2022/05/13 05:03:20;;;;;;;3.33;0.93;;;;;;;16.92;39.76;98376.94;5052714;28;20029;-64
2022/05/13 05:05:46;;;;;;;3.83;0.90;;;;;;;17.00;39.22;98375.94;5051885;28;20052;-64
2022/05/13 05:08:13;;;;;;;3.38;0.77;;;;;;;17.01;38.96;98389.28;5030174;28;20147;-63
2022/05/13 05:10:40;;;;;;;3.13;1.20;;;;;;;17.13;39.14;98380.63;5031573;28;20033;-65
2022/05/13 05:13:09;;;;;;;2.38;1.08;;;;;;;18.31;36.73;98386.63;5015198;28;20093;-64
2022/05/13 05:15:38;;;;;;;1.90;0.93;;;;;;;19.67;34.57;98387.84;5031829;28;20133;-61
2022/05/13 05:18:04;;;;;;;3.97;1.25;;;;;;;19.84;33.33;98382.72;5031879;28;20109;-61
2022/05/13 05:20:30;;;;;;;4.57;1.23;;;;;;;19.29;34.64;98384.94;5031564;28;20112;-65
2022/05/13 05:22:57;;;;;;;3.30;1.10;;;;;;;19.31;34.53;98372.00;5031661;28;20082;-62
2022/05/13 05:25:28;;;;;;;3.92;1.10;;;;;;;20.35;32.55;98383.59;5031282;28;20373;-63
2022/05/13 05:27:57;;;;;;;4.10;1.10;;;;;;;21.06;31.31;98365.09;4997180;28;20061;-63
2022/05/13 05:30:24;;;;;;;2.03;0.93;;;;;;;21.02;31.37;98388.38;5013721;28;20026;-64
2022/05/13 05:32:50;;;;;;;2.90;1.00;;;;;;;21.32;30.83;98387.56;5048030;28;20033;-64
2022/05/13 05:35:21;;;;;;;3.92;1.20;;;;;;;21.12;31.34;98403.31;5051493;28;20082;-64
2022/05/13 05:37:47;;;;;;;2.85;1.00;;;;;;;20.45;31.81;98399.41;5038844;28;20053;-64
2022/05/13 05:40:13;;;;;;;2.25;0.88;;;;;;;19.99;32.63;98393.28;5013190;28;20076;-64
2022/05/13 05:42:40;;;;;;;3.13;0.93;;;;;;;19.59;32.96;98399.78;5030700;28;20389;-64
2022/05/13 05:45:08;;;;;;;3.25;1.10;;;;;;;21.98;30.00;98389.59;5032723;28;20063;-65
2022/05/13 05:47:34;;;;;;;4.00;1.10;;;;;;;23.40;27.84;98395.25;5016102;28;20021;-63
2022/05/13 05:50:00;;;;;;;3.70;1.10;;;;;;;22.71;28.23;98389.44;5049871;28;20511;-64
2022/05/13 05:52:26;;;;;;;1.42;0.90;;;;;;;22.59;28.23;98396.78;5051275;28;20037;-65
2022/05/13 05:57:36;;;;;;;2.75;0.93;;;;;;;26.91;22.84;98387.03;5048781;28;20397;-64
2022/05/13 06:00:05;;;;;;;5.00;0.90;;;;;;;29.34;20.59;98395.38;5033192;28;20037;-65
2022/05/13 06:02:32;;;;;;;4.55;0.82;;;;;;;30.82;17.91;98381.03;5028442;28;20030;-64
2022/05/13 06:04:57;;;;;;;6.18;1.10;;;;;;;31.49;17.44;98392.13;5030712;28;20220;-63
2022/05/13 06:07:23;;;;;;;1.88;0.60;;;;;;;30.81;17.55;98402.31;5030905;28;20112;-63
2022/05/13 06:09:49;;;;;;;2.78;0.75;;;;;;;29.20;18.92;98403.44;5031080;28;20026;-62
2022/05/13 06:12:15;;;;;;;5.38;0.80;;;;;;;27.50;20.54;98398.81;5030831;28;20053;-62
2022/05/13 06:14:41;;;;;;;1.95;0.70;;;;;;;25.76;22.88;98388.06;5024426;28;20146;-62
2022/05/13 06:17:07;;;;;;;2.13;0.70;;;;;;;24.64;24.44;98427.44;5050642;28;20499;-62
2022/05/13 06:19:33;;;;;;;1.92;0.90;;;;;;;23.26;26.18;98419.25;5050579;28;20037;-62
2022/05/13 06:21:59;;;;;;;2.45;0.85;;;;;;;22.16;27.88;98423.28;5050461;28;20041;-63
2022/05/13 06:24:24;;;;;;;3.10;0.85;;;;;;;21.55;28.62;98424.13;5032223;28;20028;-62
2022/05/13 06:26:51;;;;;;;2.13;0.80;;;;;;;20.79;30.44;98432.53;5049935;28;20029;-61
2022/05/13 06:29:19;;;;;;;4.95;0.90;;;;;;;20.04;31.38;98442.38;5051201;28;20044;-55
2022/05/13 06:31:45;;;;;;;2.08;0.93;;;;;;;19.29;32.87;98432.94;5048085;28;20079;-54
2022/05/13 06:34:11;;;;;;;2.80;0.90;;;;;;;18.74;34.22;98440.34;5031087;28;20045;-56
2022/05/13 06:36:37;;;;;;;2.20;0.80;;;;;;;18.25;35.14;98436.22;5038869;28;20713;-55
2022/05/13 06:39:05;;;;;;;4.40;1.00;;;;;;;17.84;35.59;98436.16;5049899;28;20033;-54
2022/05/13 06:41:31;;;;;;;2.85;1.00;;;;;;;17.60;36.22;98442.97;5049667;28;20379;-55
2022/05/13 06:43:57;;;;;;;3.67;1.10;;;;;;;17.09;37.80;98447.78;5051113;28;20037;-53
2022/05/13 06:46:23;;;;;;;3.00;0.82;;;;;;;16.47;38.83;98464.59;5053553;28;20029;-56
2022/05/13 06:48:49;;;;;;;3.63;1.00;;;;;;;16.21;39.48;98433.66;5054662;28;20373;-54
2022/05/13 06:51:16;;;;;;;2.33;0.95;;;;;;;16.52;39.27;98444.25;5046969;28;20029;-55
2022/05/13 06:53:42;;;;;;;3.25;1.10;;;;;;;16.95;38.84;98449.53;5033682;28;20068;-51
2022/05/13 06:56:08;;;;;;;2.65;1.20;;;;;;;17.87;37.22;98435.75;5042425;28;20107;-56
2022/05/13 06:58:35;;;;;;;3.40;1.20;;;;;;;21.65;31.21;98429.88;5049247;28;20056;-57
2022/05/13 07:01:02;;;;;;;2.25;0.95;;;;;;;23.91;27.15;98428.97;5023371;28;20112;-56
2022/05/13 07:03:27;;;;;;;2.15;0.82;;;;;;;24.88;24.84;98421.81;5039199;28;20028;-61
2022/05/13 07:05:53;;;;;;;2.10;0.93;;;;;;;25.44;24.03;98429.06;5053998;28;20110;-62
2022/05/13 07:08:18;;;;;;;4.45;0.80;;;;;;;25.23;24.17;98429.66;5054118;28;20025;-58
2022/05/13 07:10:44;;;;;;;2.38;0.90;;;;;;;26.70;22.54;98419.00;5052827;28;20032;-61
2022/05/13 07:13:12;;;;;;;5.00;1.15;;;;;;;26.88;22.67;98432.31;5053468;28;20427;-63
2022/05/13 07:15:38;;;;;;;9.90;0.80;;;;;;;26.37;22.51;98425.34;5046077;28;20030;-56
2022/05/13 07:18:03;;;;;;;4.85;0.88;;;;;;;25.57;23.39;98425.97;5033894;28;20041;-58
2022/05/13 07:20:29;;;;;;;4.65;0.90;;;;;;;24.64;24.91;98435.66;5053308;28;20060;-59
2022/05/13 07:22:56;;;;;;;2.00;0.70;;;;;;;24.60;25.01;98434.50;5053864;28;20119;-58
2022/05/13 07:25:22;;;;;;;1.83;0.80;;;;;;;24.94;24.41;98442.69;5034760;28;20022;-59
2022/05/13 07:27:48;;;;;;;4.03;0.68;;;;;;;25.53;24.44;98437.69;5039223;28;20067;-57
2022/05/13 07:30:14;;;;;;;2.80;0.80;;;;;;;27.07;21.89;98438.22;5053319;28;20579;-55
2022/05/13 07:32:39;;;;;;;2.88;0.80;;;;;;;26.72;22.23;98425.88;5053658;28;20029;-60
2022/05/13 07:35:05;;;;;;;5.07;0.70;;;;;;;25.73;23.23;98448.06;5051887;28;20435;-55
2022/05/13 07:37:31;;;;;;;2.50;0.70;;;;;;;24.52;24.39;98450.25;5053622;28;20037;-57
2022/05/13 07:42:40;;;;;;;1.25;0.82;;;;;;;22.68;27.10;98454.53;5031611;28;20037;-54
2022/05/13 07:45:07;;;;;;;6.18;0.95;;;;;;;22.14;27.85;98464.38;5033545;28;20029;-56
2022/05/13 07:47:33;;;;;;;2.13;1.00;;;;;;;22.46;27.32;98461.41;5051092;28;20040;-53
2022/05/13 07:49:59;;;;;;;4.18;0.90;;;;;;;22.93;26.83;98446.13;5052690;28;20384;-50
2022/05/13 07:52:26;;;;;;;2.17;1.00;;;;;;;23.46;25.62;98440.69;5052393;28;20021;-54
2022/05/13 07:54:52;;;;;;;0.95;0.40;;;;;;;23.53;25.41;98449.56;5053658;28;20033;-56
2022/05/13 07:57:17;;;;;;;1.90;0.70;;;;;;;24.91;23.81;98454.16;5044589;28;20037;-57
2022/05/13 08:02:28;;;;;;;2.33;0.60;;;;;;;25.83;22.18;98442.69;5032601;28;20021;-55
2022/05/13 08:04:54;;;;;;;1.70;0.90;;;;;;;25.87;22.71;98437.50;5043636;28;20108;-56
2022/05/13 08:07:19;;;;;;;2.78;0.63;;;;;;;26.41;22.25;98433.91;5043869;28;20511;-54
2022/05/13 08:09:45;;;;;;;2.03;0.85;;;;;;;28.49;19.25;98430.88;5032749;28;20041;-58
2022/05/13 08:12:11;;;;;;;2.95;0.80;;;;;;;29.90;17.66;98429.28;5033148;28;20037;-54
2022/05/13 08:14:36;;;;;;;2.03;0.68;;;;;;;29.10;18.45;98432.97;5040650;28;20029;-57
2022/05/13 08:17:02;;;;;;;3.33;0.60;;;;;;;27.27;20.23;98422.91;5041644;28;20028;-55
2022/05/13 08:19:28;;;;;;;1.10;0.70;;;;;;;25.78;21.92;98428.91;5032427;28;20033;-61
2022/05/13 08:21:53;;;;;;;2.08;0.70;;;;;;;24.56;23.52;98439.66;5035263;28;20044;-58
2022/05/13 08:24:18;;;;;;;5.18;0.80;;;;;;;23.72;24.92;98444.75;5044653;28;20030;-57
2022/05/13 08:26:44;;;;;;;3.00;0.93;;;;;;;23.16;25.21;98447.97;5045289;28;20029;-58
2022/05/13 08:29:10;;;;;;;2.85;0.55;;;;;;;22.66;25.53;98443.84;5040051;28;20049;-58
2022/05/13 08:31:35;;;;;;;1.65;0.60;;;;;;;22.20;26.64;98436.22;5032437;28;20112;-55
2022/05/13 08:34:01;;;;;;;2.95;0.52;;;;;;;21.93;26.57;98442.06;5032517;28;20465;-56
2022/05/13 08:36:26;;;;;;;2.58;0.52;;;;;;;21.98;26.03;98441.38;5036917;28;20465;-59
2022/05/13 08:38:52;;;;;;;2.72;1.08;;;;;;;22.09;25.74;98442.47;5051968;28;20036;-55
2022/05/13 08:41:40;;;;;;;2.70;0.65;;;;;;;22.22;25.48;98450.44;5052304;28;20068;-61
2022/05/13 08:44:09;;;;;;;5.07;0.55;;;;;;;21.85;26.30;98450.56;5052508;28;20075;-58
2022/05/13 08:46:42;;;;;;;1.48;0.50;;;;;;;21.46;26.82;98441.84;5048822;28;20029;-59
2022/05/13 08:49:23;;;;;;;2.60;0.73;;;;;;;20.79;27.59;98436.13;5031852;28;20116;-56
2022/05/13 08:55:17;;;;;;;3.20;0.68;;;;;;;21.08;27.54;98431.00;5046963;28;20458;-55
2022/05/13 08:57:45;;;;;;;0.82;0.55;;;;;;;21.22;26.93;98458.88;5051950;28;20461;-56
2022/05/13 09:00:30;;;;;;;3.03;0.85;;;;;;;21.16;27.25;98450.78;5051997;28;20079;-58
2022/05/13 09:03:17;;;;;;;1.20;0.60;;;;;;;20.75;27.59;98442.19;5034067;28;20410;-59
2022/05/13 09:05:51;;;;;;;3.67;0.60;;;;;;;20.47;28.43;98448.94;5037882;28;20036;-59
2022/05/13 09:08:17;;;;;;;5.88;0.60;;;;;;;20.33;28.43;98451.75;5031546;28;20074;-57
2022/05/13 09:10:58;;;;;;;4.13;0.80;;;;;;;20.70;28.08;98459.19;5040044;28;20075;-53
2022/05/13 09:13:35;;;;;;;2.88;0.88;;;;;;;21.35;27.60;98438.84;5049044;28;20040;-56
2022/05/13 09:16:05;;;;;;;2.42;0.52;;;;;;;21.63;26.64;98442.88;5050158;28;20064;-57
2022/05/13 09:18:44;;;;;;;1.38;0.75;;;;;;;21.89;26.24;98434.59;5051223;28;20465;-58
2022/05/13 09:21:15;;;;;;;3.38;0.60;;;;;;;22.00;25.92;98443.88;5034327;28;20075;-57
2022/05/13 09:23:41;;;;;;;2.33;0.57;;;;;;;21.80;26.10;98434.91;5031063;28;20039;-59
2022/05/13 09:26:13;;;;;;;2.15;0.52;;;;;;;21.66;25.93;98433.44;5031871;28;20025;-57
2022/05/13 09:29:12;;;;;;;3.33;0.60;;;;;;;21.61;26.80;98444.19;5031317;28;20457;-57
2022/05/13 09:31:44;;;;;;;2.85;0.60;;;;;;;21.12;26.45;98442.28;5041993;28;20747;-61
2022/05/13 09:34:16;;;;;;;2.80;0.60;;;;;;;21.13;27.08;98437.63;5044851;28;20048;-55
2022/05/13 09:36:42;;;;;;;2.60;0.60;;;;;;;20.90;26.90;98450.03;5030512;28;20168;-52
2022/05/13 09:39:25;;;;;;;2.95;0.70;;;;;;;20.91;26.89;98448.97;5030856;28;20456;-56
2022/05/13 09:41:52;;;;;;;2.40;0.45;;;;;;;20.50;27.30;98448.50;5031360;28;20028;-57
2022/05/13 09:44:23;;;;;;;1.80;0.60;;;;;;;20.38;27.08;98453.81;5029390;28;20033;-54
2022/05/13 09:46:51;;;;;;;2.88;0.60;;;;;;;20.17;27.70;98447.72;5030265;28;20041;-54
2022/05/13 09:49:36;;;;;;;2.08;0.60;;;;;;;20.51;27.79;98456.44;5031334;28;20025;-55
2022/05/13 09:52:14;;;;;;;1.65;0.60;;;;;;;20.71;27.25;98460.03;5037858;28;20040;-56
2022/05/13 09:54:42;;;;;;;3.20;0.73;;;;;;;20.47;27.52;98457.91;5048314;28;20056;-57
2022/05/13 09:57:21;;;;;;;1.38;0.65;;;;;;;20.43;27.68;98467.56;5050415;28;20158;-63
2022/05/13 10:00:21;;;;;;;1.20;0.60;;;;;;;20.54;27.42;98459.75;5040522;28;20044;-52
2022/05/13 10:02:49;;;;;;;5.32;0.82;;;;;;;20.49;27.10;98469.41;5032697;28;20057;-59
2022/05/13 10:05:16;;;;;;;2.80;0.60;;;;;;;20.41;26.78;98458.81;5033878;28;20130;-53
2022/05/13 10:07:55;;;;;;;1.08;0.57;;;;;;;20.46;27.44;98480.72;5032647;28;20036;-57
2022/05/13 10:16:19;;;;;;;1.23;0.50;;;;;;;20.94;27.15;98470.28;5050448;28;20037;-55
2022/05/13 10:19:36;;;;;;;3.35;0.80;;;;;;;21.17;26.80;98464.19;5032807;28;20033;-52
2022/05/13 10:22:10;;;;;;;1.55;0.60;;;;;;;21.23;26.93;98462.44;4986275;28;20452;-61
2022/05/13 10:24:46;;;;;;;1.38;0.68;;;;;;;21.23;26.63;98460.53;5031758;28;20029;-60
2022/05/13 10:27:45;;;;;;;2.35;0.60;;;;;;;21.40;26.02;98459.94;5038534;28;20037;-54
2022/05/13 10:30:31;;;;;;;2.58;0.60;;;;;;;21.17;26.09;98455.16;5049513;28;20107;-60
2022/05/13 10:32:56;;;;;;;2.80;0.43;;;;;;;21.14;26.19;98463.78;5032759;28;20205;-61
2022/05/13 10:35:27;;;;;;;0.95;0.47;;;;;;;21.39;26.22;98452.84;5030884;28;20033;-62
2022/05/13 10:38:09;;;;;;;1.38;0.40;;;;;;;21.49;25.97;98464.00;5050377;28;20025;-62
2022/05/13 10:40:42;;;;;;;2.17;0.60;;;;;;;21.26;26.04;98459.28;5050446;28;20126;-61
2022/05/13 10:43:25;;;;;;;3.17;0.55;;;;;;;20.81;26.33;98456.81;5049929;28;20094;-57
2022/05/13 10:45:52;;;;;;;4.20;0.43;;;;;;;20.66;27.02;98449.81;5027132;28;20045;-56
2022/05/13 10:48:20;;;;;;;1.75;0.45;;;;;;;20.87;27.18;98442.31;5030170;28;20493;-62
2022/05/13 10:51:08;;;;;;;3.22;0.60;;;;;;;21.04;26.48;98457.00;5011981;28;20420;-62
2022/05/13 10:53:48;;;;;;;1.20;0.50;;;;;;;20.78;27.13;98447.19;5030240;28;20034;-58
2022/05/13 10:57:21;;;;;;;5.70;0.63;;;;;;;20.56;27.56;98449.50;5012349;28;20095;-57
2022/05/13 11:00:00;;;;;;;2.70;0.60;;;;;;;20.37;27.43;98458.41;4916296;28;20054;-62
2022/05/13 11:02:47;;;;;;;4.68;0.60;;;;;;;20.32;27.75;98454.72;5021420;28;20041;-60
2022/05/13 11:05:26;;;;;;;3.20;0.90;;;;;;;20.29;27.73;98461.41;5037597;28;20040;-56
2022/05/13 11:08:01;;;;;;;2.60;0.57;;;;;;;20.53;27.26;98477.13;5049328;28;20033;-54
2022/05/13 11:10:41;;;;;;;6.93;0.75;;;;;;;20.77;26.69;98459.97;5033318;28;20064;-56
2022/05/13 11:13:43;;;;;;;4.63;0.60;;;;;;;20.58;26.78;98453.63;5030164;28;20037;-55
2022/05/13 11:16:18;;;;;;;0.75;0.25;;;;;;;20.12;26.48;98452.97;5043526;28;20029;-60
2022/05/13 11:19:06;;;;;;;2.80;0.57;;;;;;;19.76;27.27;98459.84;5048074;28;20040;-56
2022/05/13 11:21:38;;;;;;;2.35;0.50;;;;;;;19.38;27.64;98434.34;5045259;28;20446;-54
2022/05/13 11:27:47;;;;;;;0.90;0.60;;;;;;;18.99;28.96;98445.13;5049833;28;20029;-59
2022/05/13 11:30:28;;;;;;;2.58;0.70;;;;;;;19.12;28.97;98429.88;5049508;28;20076;-56
2022/05/13 11:33:08;;;;;;;1.30;0.65;;;;;;;19.21;28.54;98423.16;5053124;28;20047;-54
2022/05/13 11:35:40;;;;;;;1.20;0.60;;;;;;;19.29;28.58;98422.94;5053806;28;20044;-60
2022/05/13 11:38:15;;;;;;;2.10;0.70;;;;;;;19.27;28.67;98422.28;5041412;28;20512;-59
2022/05/13 11:40:50;;;;;;;2.45;0.60;;;;;;;19.20;28.17;98419.63;5051290;28;20397;-57
2022/05/13 11:43:46;;;;;;;3.42;0.70;;;;;;;19.22;27.96;98411.25;5031311;28;20037;-56
2022/05/13 11:46:27;;;;;;;;;;;;;;;19.47;28.05;98432.22;5034318;28;20396;-54
2022/05/13 11:49:00;;;;;;;4.63;0.63;;;;;;;19.28;28.23;98431.28;5045052;28;20288;-59
2022/05/13 11:51:29;;;;;;;5.03;0.63;;;;;;;19.36;28.25;98417.44;5046274;28;20061;-59
2022/05/13 11:54:00;;;;;;;2.47;0.43;;;;;;;19.53;27.92;98423.22;5033236;28;20541;-59
2022/05/13 11:56:26;;;;;;;3.08;0.77;;;;;;;19.46;27.24;98417.84;5033543;28;20029;-59
2022/05/13 11:58:55;;;;;;;8.32;0.63;;;;;;;19.49;27.80;98435.56;5032931;28;20479;-59
2022/05/13 12:04:14;;;;;;;4.25;0.77;;;;;;;19.44;30.90;98454.38;5050062;28;20033;-56
2022/05/13 12:06:51;;;;;;;3.55;0.60;;;;;;;19.25;33.38;98454.22;5046864;28;20055;-55
2022/05/13 12:09:43;;;;;;;4.55;0.57;;;;;;;19.42;33.88;98445.63;5032716;28;20040;-57
2022/05/13 12:12:19;;;;;;;3.47;0.60;;;;;;;19.63;34.48;98450.75;5034686;28;20030;-60
2022/05/13 12:14:47;;;;;;;;;;;;;;;20.11;31.79;98448.59;5033402;28;20079;-57
2022/05/13 12:17:28;;;;;;;1.73;0.60;;;;;;;19.72;32.80;98435.03;5032735;28;19971;-56
2022/05/13 12:20:04;;;;;;;3.80;0.85;;;;;;;19.45;32.77;98437.03;5032283;28;20461;-55